createdAt,value
2022-10-23T00:01:47.335Z,14.80
2022-10-23T00:04:21.699Z,14.10
2022-10-23T00:06:50.050Z,12.90
2022-10-23T00:09:21.535Z,14.30
2022-10-23T00:11:50.895Z,14.30
2022-10-23T00:14:21.687Z,14.20
2022-10-23T00:16:50.833Z,13.80
2022-10-23T00:19:18.905Z,14.30
2022-10-23T00:21:46.985Z,14.40
2022-10-23T00:24:15.278Z,13.90
2022-10-23T00:26:43.443Z,15.10
2022-10-23T00:29:11.748Z,13.50
2022-10-23T00:31:40.107Z,14.60
2022-10-23T00:34:08.478Z,14.50
2022-10-23T00:36:37.936Z,15.50
2022-10-23T00:39:06.585Z,15.00
2022-10-23T00:41:35.275Z,14.00
2022-10-23T00:44:11.131Z,15.30
2022-10-23T00:46:39.613Z,14.30
2022-10-23T00:49:09.727Z,15.30
2022-10-23T00:51:47.922Z,15.50
2022-10-23T00:54:25.645Z,15.40
2022-10-23T00:56:59.143Z,14.60
2022-10-23T00:59:27.762Z,15.10
2022-10-23T01:01:56.166Z,14.90
2022-10-23T01:04:25.925Z,15.30
2022-10-23T01:07:31.762Z,15.90
2022-10-23T01:10:37.904Z,15.50
2022-10-23T01:13:14.269Z,15.10
2022-10-23T01:15:52.955Z,14.50
2022-10-23T01:18:44.811Z,15.00
2022-10-23T01:21:22.605Z,13.50
2022-10-23T01:23:56.678Z,13.00
2022-10-23T01:27:01.635Z,11.00
2022-10-23T01:29:49.179Z,11.70
2022-10-23T01:32:27.687Z,10.90
2022-10-23T01:35:01.592Z,12.30
2022-10-23T01:37:55.739Z,13.10
2022-10-23T01:40:47.561Z,14.10
2022-10-23T01:43:25.258Z,14.20
2022-10-23T01:46:01.387Z,14.70
2022-10-23T01:48:31.132Z,15.80
2022-10-23T01:51:03.609Z,16.40
2022-10-23T01:53:37.520Z,16.90
2022-10-23T01:56:12.184Z,15.10
2022-10-23T01:58:45.956Z,15.10
2022-10-23T02:01:16.628Z,13.40
2022-10-23T02:03:45.247Z,12.20
2022-10-23T02:06:13.453Z,12.50
2022-10-23T02:08:42.042Z,12.10
2022-10-23T02:11:15.743Z,11.20
2022-10-23T02:14:04.145Z,10.60
2022-10-23T02:16:55.392Z,11.10
2022-10-23T02:19:35.660Z,9.50
2022-10-23T02:22:32.987Z,10.30
2022-10-23T02:25:09.571Z,9.40
2022-10-23T02:27:43.114Z,10.40
2022-10-23T02:30:16.235Z,8.60
2022-10-23T02:32:53.840Z,8.40
2022-10-23T02:35:26.421Z,7.90
2022-10-23T02:37:59.515Z,8.50
2022-10-23T02:40:42.018Z,8.90
2022-10-23T02:43:21.985Z,8.70
2022-10-23T02:46:20.780Z,8.30
2022-10-23T02:48:57.227Z,8.10
2022-10-23T02:51:44.724Z,8.10
2022-10-23T02:54:22.700Z,7.60
2022-10-23T02:57:06.249Z,7.30
2022-10-23T02:59:34.207Z,7.80
2022-10-23T03:02:51.631Z,7.10
2022-10-23T03:05:28.607Z,6.70
2022-10-23T03:07:56.887Z,6.50
2022-10-23T03:10:25.375Z,6.40
2022-10-23T03:12:53.451Z,6.40
2022-10-23T03:15:21.421Z,6.70
2022-10-23T03:17:49.404Z,7.10
2022-10-23T03:20:18.086Z,5.90
2022-10-23T03:22:46.348Z,7.20
2022-10-23T03:25:14.852Z,6.60
2022-10-23T03:27:43.133Z,6.50
2022-10-23T03:30:11.415Z,6.10
2022-10-23T03:32:39.676Z,6.70
2022-10-23T03:35:08.595Z,6.00
2022-10-23T03:37:36.667Z,6.50
2022-10-23T03:40:05.257Z,6.10
2022-10-23T03:42:33.433Z,6.20
2022-10-23T03:45:01.405Z,6.20
2022-10-23T03:47:30.401Z,5.40
2022-10-23T03:49:58.579Z,5.50
2022-10-23T03:52:26.558Z,6.00
2022-10-23T03:54:54.529Z,7.10
2022-10-23T03:57:22.601Z,6.10
2022-10-23T03:59:50.679Z,6.50
2022-10-23T04:02:18.945Z,6.70
2022-10-23T04:04:47.140Z,5.70
2022-10-23T04:07:15.419Z,5.40
2022-10-23T04:09:43.410Z,6.00
2022-10-23T04:12:11.466Z,5.10
2022-10-23T04:14:39.622Z,6.30
2022-10-23T04:17:07.938Z,5.80
2022-10-23T04:19:36.105Z,6.30
2022-10-23T04:22:04.080Z,6.30
2022-10-23T04:24:32.257Z,6.10
2022-10-23T04:27:00.538Z,5.40
2022-10-23T04:29:28.920Z,6.40
2022-10-23T04:31:57.207Z,5.90
2022-10-23T04:34:25.181Z,5.90
2022-10-23T04:36:53.154Z,6.20
2022-10-23T04:39:21.327Z,5.90
2022-10-23T04:41:49.202Z,6.00
2022-10-23T04:44:17.176Z,6.00
2022-10-23T04:46:45.045Z,6.30
2022-10-23T04:49:13.016Z,5.60
2022-10-23T04:51:40.933Z,6.30
2022-10-23T04:54:08.759Z,6.50
2022-10-23T04:56:36.841Z,6.40
2022-10-23T05:01:33.992Z,7.40
2022-10-23T05:04:02.608Z,6.10
2022-10-23T05:06:30.883Z,6.00
2022-10-23T05:08:58.858Z,6.40
2022-10-23T05:11:26.931Z,5.80
2022-10-23T05:13:54.901Z,6.00
2022-10-23T05:16:36.588Z,5.80
2022-10-23T05:19:07.366Z,6.10
2022-10-23T05:21:38.575Z,5.50
2022-10-23T05:24:07.061Z,6.20
2022-10-23T05:26:35.037Z,5.80
2022-10-23T05:29:03.551Z,5.40
2022-10-23T05:31:34.765Z,5.60
2022-10-23T05:34:02.690Z,6.10
2022-10-23T05:36:32.067Z,5.90
2022-10-23T05:38:59.944Z,6.80
2022-10-23T05:41:27.889Z,5.50
2022-10-23T05:43:56.071Z,5.70
2022-10-23T05:46:24.042Z,6.00
2022-10-23T05:48:52.896Z,6.40
2022-10-23T05:51:21.938Z,6.70
2022-10-23T05:53:50.881Z,6.10
2022-10-23T05:56:19.621Z,6.10
2022-10-23T05:58:47.696Z,6.60
2022-10-23T06:01:15.826Z,6.30
2022-10-23T06:03:43.746Z,5.90
2022-10-23T06:06:12.334Z,6.80
2022-10-23T06:08:40.307Z,6.40
2022-10-23T06:11:09.949Z,6.70
2022-10-23T06:13:38.512Z,6.00
2022-10-23T06:16:15.281Z,7.00
2022-10-23T06:18:44.285Z,6.30
2022-10-23T06:21:13.171Z,6.20
2022-10-23T06:23:43.191Z,7.00
2022-10-23T06:26:13.866Z,6.10
2022-10-23T06:28:41.948Z,6.60
2022-10-23T06:31:13.571Z,6.40
2022-10-23T06:33:42.045Z,6.50
2022-10-23T06:36:10.122Z,6.20
2022-10-23T06:38:39.181Z,5.80
2022-10-23T06:41:19.533Z,6.60
2022-10-23T06:43:49.915Z,5.80
2022-10-23T06:46:19.217Z,6.40
2022-10-23T06:48:47.238Z,6.40
2022-10-23T06:51:17.928Z,5.10
2022-10-23T06:53:46.301Z,6.70
2022-10-23T06:56:14.865Z,6.40
2022-10-23T06:58:42.813Z,6.10
2022-10-23T07:01:13.125Z,7.10
2022-10-23T07:03:41.095Z,6.80
2022-10-23T07:06:10.985Z,6.20
2022-10-23T07:08:38.977Z,5.80
2022-10-23T07:11:09.381Z,5.70
2022-10-23T07:13:38.797Z,6.20
2022-10-23T07:16:19.301Z,5.60
2022-10-23T07:18:48.881Z,5.60
2022-10-23T07:21:17.036Z,5.40
2022-10-23T07:23:44.912Z,6.30
2022-10-23T07:26:15.825Z,6.00
2022-10-23T07:28:45.947Z,5.70
2022-10-23T07:31:14.661Z,6.10
2022-10-23T07:33:42.738Z,5.50
2022-10-23T07:36:10.820Z,5.20
2022-10-23T07:38:39.096Z,6.10
2022-10-23T07:41:09.045Z,5.70
2022-10-23T07:43:40.054Z,5.80
2022-10-23T07:46:08.648Z,6.00
2022-10-23T07:48:37.946Z,5.80
2022-10-23T07:51:13.862Z,5.90
2022-10-23T07:53:43.308Z,6.50
2022-10-23T07:56:37.490Z,5.90
2022-10-23T07:59:05.427Z,6.00
2022-10-23T08:01:40.737Z,5.80
2022-10-23T08:04:10.617Z,6.00
2022-10-23T08:06:38.689Z,5.60
2022-10-23T08:09:07.380Z,5.40
2022-10-23T08:11:35.890Z,5.50
2022-10-23T08:14:06.606Z,5.20
2022-10-23T08:16:37.438Z,5.90
2022-10-23T08:19:07.203Z,4.80
2022-10-23T08:21:35.228Z,5.40
2022-10-23T08:24:03.734Z,5.50
2022-10-23T08:26:32.300Z,5.00
2022-10-23T08:29:00.990Z,5.50
2022-10-23T08:31:29.095Z,5.70
2022-10-23T08:33:57.085Z,6.00
2022-10-23T08:36:27.666Z,5.50
2022-10-23T08:38:57.900Z,5.50
2022-10-23T08:41:28.123Z,5.80
2022-10-23T08:44:24.762Z,5.80
2022-10-23T08:47:08.419Z,5.30
2022-10-23T08:49:58.057Z,5.80
2022-10-23T08:52:37.412Z,5.90
2022-10-23T08:55:35.994Z,7.20
2022-10-23T08:58:27.118Z,6.30
2022-10-23T09:00:55.342Z,7.00
2022-10-23T09:03:23.513Z,8.30
2022-10-23T09:06:03.510Z,8.20
2022-10-23T09:08:59.474Z,7.50
2022-10-23T09:11:59.990Z,7.30
2022-10-23T09:14:30.623Z,7.10
2022-10-23T09:17:17.056Z,7.80
2022-10-23T09:19:46.330Z,7.40
2022-10-23T09:22:14.395Z,6.60
2022-10-23T09:24:44.212Z,7.10
2022-10-23T09:27:17.612Z,6.60
2022-10-23T09:29:51.829Z,6.70
2022-10-23T09:32:20.574Z,6.20
2022-10-23T09:34:55.144Z,7.30
2022-10-23T09:37:23.117Z,7.30
2022-10-23T09:40:24.682Z,7.40
2022-10-23T09:43:01.633Z,8.00
2022-10-23T09:45:31.881Z,7.80
2022-10-23T09:48:12.974Z,8.30
2022-10-23T09:51:02.396Z,8.80
2022-10-23T09:53:33.230Z,7.60
2022-10-23T09:56:24.638Z,7.30
2022-10-23T09:59:15.808Z,8.20
2022-10-23T10:01:53.386Z,8.80
2022-10-23T10:04:36.379Z,10.60
2022-10-23T10:07:15.786Z,9.90
2022-10-23T10:09:43.863Z,10.70
2022-10-23T10:12:17.770Z,10.30
2022-10-23T10:15:09.997Z,10.40
2022-10-23T10:17:50.975Z,9.80
2022-10-23T10:21:08.777Z,11.20
2022-10-23T10:23:47.395Z,9.10
2022-10-23T10:26:34.508Z,9.30
2022-10-23T10:29:21.415Z,9.90
2022-10-23T10:32:22.438Z,10.10
2022-10-23T10:35:11.898Z,10.60
2022-10-23T10:37:48.615Z,10.30
2022-10-23T10:40:38.962Z,10.40
2022-10-23T10:43:29.366Z,11.10
2022-10-23T10:46:20.765Z,9.80
2022-10-23T10:49:01.362Z,9.10
2022-10-23T10:51:59.473Z,9.70
2022-10-23T10:54:30.412Z,9.10
2022-10-23T10:57:01.047Z,9.00
2022-10-23T10:59:38.848Z,8.80
2022-10-23T11:02:29.125Z,9.00
2022-10-23T11:05:29.156Z,8.10
2022-10-23T11:08:07.159Z,7.40
2022-10-23T11:10:39.301Z,8.00
2022-10-23T11:13:26.517Z,7.90
2022-10-23T11:16:04.006Z,7.70
2022-10-23T11:18:33.890Z,8.80
2022-10-23T11:21:32.497Z,8.90
2022-10-23T11:24:19.404Z,8.80
2022-10-23T11:27:25.236Z,10.70
2022-10-23T11:30:26.265Z,10.60
2022-10-23T11:33:34.556Z,9.90
2022-10-23T11:36:18.702Z,10.30
2022-10-23T11:38:50.016Z,11.00
2022-10-23T11:41:25.310Z,11.80
2022-10-23T11:43:57.459Z,11.40
2022-10-23T11:46:25.538Z,12.50
2022-10-23T11:48:55.560Z,11.30
2022-10-23T11:51:40.823Z,11.60
2022-10-23T11:54:11.585Z,10.50
2022-10-23T11:56:54.415Z,10.60
2022-10-23T11:59:26.029Z,13.60
2022-10-23T12:01:57.257Z,13.80
2022-10-23T12:04:33.650Z,17.50
2022-10-23T12:07:13.690Z,19.30
2022-10-23T12:09:45.446Z,18.00
2022-10-23T12:12:16.841Z,13.70
2022-10-23T12:14:50.199Z,12.60
2022-10-23T12:17:24.107Z,11.80
2022-10-23T12:19:55.079Z,12.00
2022-10-23T12:22:32.293Z,12.80
2022-10-23T12:25:07.459Z,11.90
2022-10-23T12:27:46.052Z,9.30
2022-10-23T12:30:29.207Z,8.00
2022-10-23T12:33:22.127Z,6.40
2022-10-23T12:35:59.026Z,5.60
2022-10-23T12:38:33.947Z,6.00
2022-10-23T12:41:13.563Z,6.50
2022-10-23T12:43:45.845Z,5.20
2022-10-23T12:46:33.331Z,5.60
2022-10-23T12:49:03.789Z,5.90
2022-10-23T12:51:34.418Z,5.20
2022-10-23T12:54:03.558Z,5.70
2022-10-23T12:56:38.075Z,5.00
2022-10-23T12:59:18.431Z,5.70
2022-10-23T13:01:51.799Z,5.30
2022-10-23T13:04:33.319Z,5.90
2022-10-23T13:07:03.769Z,6.20
2022-10-23T13:09:39.900Z,7.00
2022-10-23T13:12:16.817Z,6.60
2022-10-23T13:15:17.537Z,5.70
2022-10-23T13:17:57.855Z,5.90
2022-10-23T13:20:37.389Z,6.60
2022-10-23T13:23:08.537Z,5.90
2022-10-23T13:25:39.309Z,6.00
2022-10-23T13:28:22.084Z,6.10
2022-10-23T13:30:59.371Z,5.40
2022-10-23T13:33:34.611Z,5.40
2022-10-23T13:36:07.616Z,6.10
2022-10-23T13:38:38.208Z,5.70
2022-10-23T13:41:11.762Z,5.60
2022-10-23T13:43:41.854Z,5.70
2022-10-23T13:46:24.842Z,6.20
2022-10-23T13:48:53.562Z,7.20
2022-10-23T13:51:24.464Z,6.80
2022-10-23T13:53:53.192Z,6.60
2022-10-23T13:56:23.246Z,7.20
2022-10-23T13:58:51.348Z,7.00
2022-10-23T14:01:28.292Z,7.10
2022-10-23T14:03:57.779Z,7.40
2022-10-23T14:06:26.056Z,6.30
2022-10-23T14:08:54.340Z,6.70
2022-10-23T14:11:22.721Z,6.40
2022-10-23T14:13:51.005Z,7.30
2022-10-23T14:16:20.717Z,7.10
2022-10-23T14:18:49.144Z,6.70
2022-10-23T14:21:20.718Z,6.20
2022-10-23T14:23:49.998Z,6.60
2022-10-23T14:26:21.012Z,6.80
2022-10-23T14:28:55.292Z,6.60
2022-10-23T14:31:23.706Z,7.00
2022-10-23T14:33:57.247Z,7.20
2022-10-23T14:36:30.917Z,7.10
2022-10-23T14:39:06.860Z,7.10
2022-10-23T14:41:35.249Z,7.00
2022-10-23T14:44:03.320Z,7.00
2022-10-23T14:46:31.397Z,6.90
2022-10-23T14:49:02.334Z,7.10
2022-10-23T14:51:30.829Z,7.60
2022-10-23T14:54:04.221Z,8.50
2022-10-23T14:56:35.527Z,8.10
2022-10-23T14:59:05.091Z,8.00
2022-10-23T15:01:36.731Z,8.20
2022-10-23T15:04:05.537Z,8.50
2022-10-23T15:06:35.090Z,8.20
2022-10-23T15:09:04.444Z,8.60
2022-10-23T15:11:33.173Z,8.20
2022-10-23T15:14:01.211Z,8.80
2022-10-23T15:16:29.286Z,9.00
2022-10-23T15:18:57.372Z,9.20
2022-10-23T15:21:25.542Z,7.90
2022-10-23T15:23:53.542Z,8.60
2022-10-23T15:26:22.207Z,9.80
2022-10-23T15:29:01.899Z,8.30
2022-10-23T15:31:29.922Z,9.90
2022-10-23T15:33:58.610Z,9.10
2022-10-23T15:36:27.301Z,9.40
2022-10-23T15:38:55.581Z,8.60
2022-10-23T15:41:32.047Z,8.70
2022-10-23T15:44:02.285Z,9.30
2022-10-23T15:46:30.762Z,8.40
2022-10-23T15:48:58.939Z,8.40
2022-10-23T15:51:27.628Z,8.50
2022-10-23T15:53:56.217Z,8.20
2022-10-23T15:56:24.807Z,8.30
2022-10-23T15:58:53.110Z,7.80
2022-10-23T16:01:21.217Z,7.60
2022-10-23T16:03:49.443Z,9.10
2022-10-23T16:06:19.404Z,9.20
2022-10-23T16:08:48.013Z,8.50
2022-10-23T16:11:18.305Z,8.50
2022-10-23T16:13:46.860Z,8.60
2022-10-23T16:16:16.472Z,9.60
2022-10-23T16:18:44.816Z,8.40
2022-10-23T16:21:22.174Z,8.40
2022-10-23T16:23:51.899Z,8.30
2022-10-23T16:26:20.849Z,7.50
2022-10-23T16:28:53.428Z,8.30
2022-10-23T16:31:24.930Z,9.90
2022-10-23T16:33:53.698Z,8.30
2022-10-23T16:36:21.956Z,9.30
2022-10-23T16:38:49.929Z,8.50
2022-10-23T16:41:18.208Z,8.40
2022-10-23T16:43:46.304Z,8.00
2022-10-23T16:46:17.936Z,9.70
2022-10-23T16:48:46.332Z,8.60
2022-10-23T16:51:20.341Z,8.50
2022-10-23T16:53:49.187Z,8.80
2022-10-23T16:56:20.502Z,9.10
2022-10-23T16:58:49.093Z,8.10
2022-10-23T17:01:21.572Z,8.70
2022-10-23T17:03:51.974Z,9.10
2022-10-23T17:06:23.632Z,9.40
2022-10-23T17:08:52.893Z,8.30
2022-10-23T17:11:23.859Z,8.50
2022-10-23T17:13:59.280Z,7.60
2022-10-23T17:16:33.843Z,8.90
2022-10-23T17:19:03.157Z,8.50
2022-10-23T17:21:34.893Z,9.90
2022-10-23T17:24:03.497Z,10.00
2022-10-23T17:26:32.084Z,9.40
2022-10-23T17:29:02.000Z,9.50
2022-10-23T17:31:33.079Z,10.10
2022-10-23T17:34:04.481Z,8.80
2022-10-23T17:36:35.542Z,9.40
2022-10-23T17:39:08.644Z,10.30
2022-10-23T17:41:37.320Z,9.50
2022-10-23T17:44:05.500Z,10.40
2022-10-23T17:46:33.577Z,10.40
2022-10-23T17:49:03.510Z,10.70
2022-10-23T17:51:35.438Z,10.20
2022-10-23T17:54:09.227Z,11.10
2022-10-23T17:56:38.058Z,11.00
2022-10-23T17:59:10.431Z,10.10
2022-10-23T18:01:38.803Z,10.20
2022-10-23T18:04:08.121Z,10.00
2022-10-23T18:06:42.500Z,10.00
2022-10-23T18:09:11.228Z,10.90
2022-10-23T18:11:45.610Z,10.70
2022-10-23T18:14:19.175Z,11.20
2022-10-23T18:16:48.151Z,11.40
2022-10-23T18:19:17.964Z,11.10
2022-10-23T18:21:47.469Z,11.40
2022-10-23T18:24:16.058Z,11.10
2022-10-23T18:26:44.343Z,11.20
2022-10-23T18:29:13.030Z,10.90
2022-10-23T18:31:41.512Z,11.00
2022-10-23T18:34:17.776Z,10.70
2022-10-23T18:36:46.606Z,11.20
2022-10-23T18:39:17.413Z,10.90
2022-10-23T18:41:46.201Z,11.00
2022-10-23T18:44:16.816Z,11.00
2022-10-23T18:46:47.031Z,10.80
2022-10-23T18:49:17.490Z,10.90
2022-10-23T18:51:45.916Z,12.00
2022-10-23T18:54:15.795Z,12.70
2022-10-23T18:56:44.485Z,11.90
2022-10-23T18:59:19.648Z,12.00
2022-10-23T19:01:48.737Z,11.50
2022-10-23T19:04:17.100Z,11.60
2022-10-23T19:06:46.501Z,11.40
2022-10-23T19:09:14.686Z,12.70
2022-10-23T19:11:43.892Z,11.70
2022-10-23T19:14:12.887Z,11.50
2022-10-23T19:16:49.693Z,11.40
2022-10-23T19:21:49.551Z,11.30
2022-10-23T19:24:25.708Z,11.00
2022-10-23T19:26:54.957Z,11.70
2022-10-23T19:29:25.795Z,11.60
2022-10-23T19:31:54.212Z,12.70
2022-10-23T19:34:24.235Z,13.10
2022-10-23T19:36:54.229Z,12.40
2022-10-23T19:39:22.703Z,12.40
2022-10-23T19:41:50.679Z,13.40
2022-10-23T19:44:19.367Z,12.70
2022-10-23T19:46:48.671Z,13.40
2022-10-23T19:49:17.914Z,13.30
2022-10-23T19:51:50.970Z,12.70
2022-10-23T19:54:21.461Z,13.40
2022-10-23T19:56:49.786Z,12.50
2022-10-23T19:59:18.674Z,12.20
2022-10-23T20:01:48.998Z,13.00
2022-10-23T20:04:19.263Z,12.60
2022-10-23T20:06:47.515Z,13.30
2022-10-23T20:09:15.994Z,14.50
2022-10-23T20:11:44.170Z,14.20
2022-10-23T20:14:13.062Z,13.20
2022-10-23T20:16:43.084Z,13.30
2022-10-23T20:19:14.081Z,13.90
2022-10-23T20:21:44.810Z,13.40
2022-10-23T20:24:14.989Z,13.00
2022-10-23T20:26:45.621Z,12.70
2022-10-23T20:29:14.822Z,12.70
2022-10-23T20:31:43.528Z,12.90
2022-10-23T20:34:12.303Z,13.40
2022-10-23T20:36:46.946Z,12.60
2022-10-23T20:39:21.535Z,12.30
2022-10-23T20:41:49.632Z,12.30
2022-10-23T20:44:20.203Z,12.00
2022-10-23T20:46:49.571Z,12.30
2022-10-23T20:49:17.952Z,11.80
2022-10-23T20:51:46.071Z,10.70
2022-10-23T20:54:14.104Z,10.50
2022-10-23T20:56:42.385Z,11.40
2022-10-23T20:59:13.767Z,17.30
2022-10-23T21:01:44.705Z,14.30
2022-10-23T21:04:14.037Z,12.30
2022-10-23T21:06:57.642Z,11.40
2022-10-23T21:09:30.991Z,10.90
2022-10-23T21:11:58.856Z,9.90
2022-10-23T21:14:26.855Z,9.70
2022-10-23T21:16:54.837Z,10.10
2022-10-23T21:19:22.811Z,10.60
2022-10-23T21:21:50.776Z,9.00
2022-10-23T21:24:18.838Z,8.30
2022-10-23T21:26:46.835Z,8.40
2022-10-23T21:29:19.371Z,8.50
2022-10-23T21:31:55.905Z,8.10
2022-10-23T21:34:25.620Z,8.10
2022-10-23T21:39:43.887Z,8.40
2022-10-23T21:42:13.763Z,8.20
2022-10-23T21:44:41.733Z,7.90
2022-10-23T21:47:09.806Z,7.70
2022-10-23T21:49:38.302Z,8.30
2022-10-23T21:52:06.425Z,8.20
2022-10-23T21:54:34.417Z,8.40
2022-10-23T21:57:02.422Z,7.70
2022-10-23T21:59:33.160Z,8.10
2022-10-23T22:02:04.375Z,7.30
2022-10-23T22:04:32.785Z,6.80
2022-10-23T22:07:01.481Z,7.80
2022-10-23T22:09:29.768Z,6.60
2022-10-23T22:11:57.940Z,6.40
2022-10-23T22:14:27.239Z,8.30
2022-10-23T22:16:55.113Z,6.60
2022-10-23T22:19:23.394Z,7.10
2022-10-23T22:21:51.735Z,7.90
2022-10-23T22:24:20.321Z,7.10
2022-10-23T22:26:53.962Z,8.10
2022-10-23T22:29:26.425Z,8.40
2022-10-23T22:31:54.418Z,7.70
2022-10-23T22:34:51.441Z,8.20
2022-10-23T22:37:16.972Z,7.90
2022-10-23T22:39:44.837Z,8.70
2022-10-23T22:42:12.913Z,8.60
2022-10-23T22:44:40.990Z,8.90
2022-10-23T22:47:09.027Z,9.70
2022-10-23T22:49:37.347Z,9.70
2022-10-23T22:52:05.320Z,10.80
2022-10-23T22:54:33.908Z,11.30
2022-10-23T22:57:01.886Z,12.00
2022-10-23T22:59:30.265Z,10.90
2022-10-23T23:01:58.692Z,12.30
2022-10-23T23:04:37.289Z,12.20
2022-10-23T23:07:07.768Z,11.90
2022-10-23T23:09:40.376Z,12.90
2022-10-23T23:12:11.601Z,13.50
2022-10-23T23:14:40.108Z,13.20
2022-10-23T23:17:09.257Z,13.40
2022-10-23T23:19:37.489Z,12.80
2022-10-23T23:22:05.667Z,12.30
2022-10-23T23:24:33.951Z,13.00
2022-10-23T23:27:02.227Z,12.30
2022-10-23T23:29:33.199Z,13.70
2022-10-23T23:32:01.148Z,12.30
2022-10-23T23:34:29.527Z,12.40
2022-10-23T23:36:58.422Z,11.90
2022-10-23T23:39:26.540Z,12.60
2022-10-23T23:41:55.086Z,12.30
2022-10-23T23:44:23.060Z,12.30
2022-10-23T23:46:51.037Z,11.60
2022-10-23T23:49:19.108Z,12.80
2022-10-23T23:51:47.082Z,12.60
2022-10-23T23:54:15.290Z,10.90
2022-10-23T23:56:43.545Z,11.60
2022-10-23T23:59:11.514Z,11.30
